Terminal Aerodrome Forecast
Issued by NWS

Home | Current Version | Previous Version | Text Only | Print | Product List | Glossary On
Versions: 1 2 3 4 5 6 7 8 9 10 11 12 13 14 15 16 17 18 19 20 21 22 23
000
FTUS45 KRIW 061740
TAFPNA
TAF
KPNA 061740Z 0618/0718 VRB05KT P6SM VCSH SCT035 BKN070
     FM062100 VRB05KT P6SM VCTS BKN060CB
     FM070200 36006KT P6SM VCSH BKN060
     FM070600 VRB05KT P6SM SCT070 SCT200
     FM071000 VRB04KT P6SM FEW080
      AMD LTD TO CLD VIS AND WIND=

USA.gov is the U.S. government's official web portal to all federal, state and local government web resources and services.